Time;durP1;ratioP1;P1;durP2;ratioP2;P2;SDS_P1;SDS_P2;PMS_P1;PMS_P2;Temp;Humidity;BMP_temperature;BMP_pressure;BME280_temperature;BME280_humidity;BME280_pressure;Samples;Min_cycle;Max_cycle;Signal;HPM_P1;HPM_P2
2021/11/28 00:00:46;;;;;;;5.38;1.48;;;4.90;86.00;;;;;;4931998;29;20057;-86
2021/11/28 00:03:16;;;;;;;4.35;1.30;;;4.90;86.00;;;;;;4931899;29;20056;-87
2021/11/28 00:05:52;;;;;;;6.25;1.30;;;4.90;86.00;;;;;;4931967;29;20571;-86
2021/11/28 00:08:46;;;;;;;6.50;1.95;;;4.90;86.00;;;;;;4931550;29;20051;-88
2021/11/28 00:13:52;;;;;;;8.48;1.85;;;4.90;86.00;;;;;;4930580;29;19930;-86
2021/11/28 00:16:20;;;;;;;7.57;1.75;;;4.90;86.00;;;;;;4931385;29;20052;-86
2021/11/28 00:18:47;;;;;;;5.95;1.75;;;4.90;86.00;;;;;;4933274;29;20062;-86
2021/11/28 00:21:14;;;;;;;7.00;1.50;;;4.90;86.00;;;;;;4930518;29;20531;-86
2021/11/28 00:23:42;;;;;;;8.82;1.70;;;4.90;86.00;;;;;;4931380;29;20056;-87
2021/11/28 00:26:09;;;;;;;6.00;1.38;;;4.90;86.00;;;;;;4931795;29;20062;-87
2021/11/28 00:28:37;;;;;;;5.63;1.60;;;4.90;86.00;;;;;;4931742;29;20060;-86
2021/11/28 00:31:04;;;;;;;9.32;1.77;;;4.90;86.00;;;;;;4933635;29;20056;-87
2021/11/28 00:33:31;;;;;;;6.93;1.63;;;5.00;86.00;;;;;;4930314;29;20067;-87
2021/11/28 00:35:58;;;;;;;6.05;1.20;;;5.00;86.00;;;;;;4931739;29;20051;-86
2021/11/28 00:38:26;;;;;;;4.75;1.20;;;5.00;86.00;;;;;;4931166;29;20052;-87
2021/11/28 00:40:54;;;;;;;6.68;1.30;;;5.00;85.90;;;;;;4930505;29;20051;-86
2021/11/28 00:43:21;;;;;;;4.85;1.00;;;4.90;85.90;;;;;;4932148;29;20071;-86
2021/11/28 00:45:48;;;;;;;6.32;1.30;;;4.90;85.90;;;;;;4933564;29;20056;-87
2021/11/28 00:48:16;;;;;;;5.35;1.30;;;4.90;85.90;;;;;;4931576;29;20064;-86
2021/11/28 00:50:47;;;;;;;6.32;1.27;;;4.90;85.90;;;;;;4931235;29;20059;-87
2021/11/28 00:53:17;;;;;;;3.10;1.10;;;4.90;85.90;;;;;;4929886;29;20047;-87
2021/11/28 00:55:44;;;;;;;6.20;1.40;;;4.90;85.90;;;;;;4931599;29;20048;-86
2021/11/28 00:58:11;;;;;;;3.38;1.15;;;4.90;85.80;;;;;;4932897;29;20056;-87
2021/11/28 01:00:38;;;;;;;2.88;0.93;;;4.90;85.80;;;;;;4929269;29;20055;-87
2021/11/28 01:03:06;;;;;;;5.57;1.27;;;4.90;85.80;;;;;;4931362;29;20095;-87
2021/11/28 01:05:34;;;;;;;8.98;1.27;;;4.90;85.80;;;;;;4931570;29;20087;-87
2021/11/28 01:08:01;;;;;;;4.07;1.30;;;4.90;85.80;;;;;;4931054;29;20052;-87
2021/11/28 01:10:28;;;;;;;4.65;0.93;;;4.90;85.80;;;;;;4931513;29;20059;-87
2021/11/28 01:12:55;;;;;;;5.00;1.00;;;4.80;85.80;;;;;;4933143;29;20048;-87
2021/11/28 01:15:22;;;;;;;3.53;1.30;;;4.80;85.80;;;;;;4931197;29;20051;-87
2021/11/28 01:17:49;;;;;;;4.03;1.00;;;4.80;85.80;;;;;;4931309;29;20048;-87
2021/11/28 01:20:16;;;;;;;2.88;0.90;;;4.80;85.80;;;;;;4928351;29;20107;-86
2021/11/28 01:22:45;;;;;;;4.50;1.00;;;4.80;85.80;;;;;;4931426;29;20134;-87
2021/11/28 01:25:14;;;;;;;2.28;0.70;;;4.80;85.80;;;;;;4936217;29;20058;-86
2021/11/28 01:27:43;;;;;;;3.65;1.00;;;4.70;85.80;;;;;;4934402;29;20047;-86
2021/11/28 01:30:10;;;;;;;4.97;1.25;;;4.70;85.70;;;;;;4934618;29;20433;-87
2021/11/28 01:32:39;;;;;;;3.13;0.88;;;4.70;85.70;;;;;;4933156;29;20051;-86
2021/11/28 01:35:08;;;;;;;4.03;0.95;;;4.70;85.70;;;;;;4934739;29;20054;-86
2021/11/28 01:37:36;;;;;;;2.30;0.70;;;4.70;85.70;;;;;;4933179;29;20058;-87
2021/11/28 01:40:06;;;;;;;6.30;1.00;;;4.60;85.70;;;;;;4936391;29;20398;-87
2021/11/28 01:42:39;;;;;;;3.67;0.90;;;4.60;85.70;;;;;;4934494;29;20123;-87
2021/11/28 01:45:10;;;;;;;3.75;0.85;;;4.60;85.70;;;;;;4934438;29;20056;-87
2021/11/28 01:47:37;;;;;;;5.30;1.30;;;4.60;85.70;;;;;;4933269;29;20055;-87
2021/11/28 01:50:05;;;;;;;3.38;1.10;;;4.60;85.70;;;;;;4934095;29;20048;-87
2021/11/28 01:52:35;;;;;;;4.00;0.70;;;4.60;85.70;;;;;;4934326;29;20071;-87
2021/11/28 01:55:05;;;;;;;3.40;0.80;;;4.50;85.70;;;;;;4936530;29;20051;-87
2021/11/28 01:57:33;;;;;;;3.47;0.80;;;4.50;85.70;;;;;;4934059;29;20070;-87
2021/11/28 02:00:00;;;;;;;4.20;0.80;;;4.50;85.70;;;;;;4934048;29;20060;-87
2021/11/28 02:02:28;;;;;;;3.63;0.70;;;4.50;85.70;;;;;;4934020;29;20457;-87
2021/11/28 02:04:56;;;;;;;2.33;0.65;;;4.50;85.70;;;;;;4932667;29;20047;-87
2021/11/28 02:07:23;;;;;;;8.73;0.98;;;4.50;85.70;;;;;;4934287;29;20047;-87
2021/11/28 02:09:50;;;;;;;4.80;0.75;;;4.50;85.70;;;;;;4934384;29;20420;-87
2021/11/28 02:12:19;;;;;;;3.00;0.80;;;4.50;85.70;;;;;;4932633;29;20048;-87
2021/11/28 02:14:46;;;;;;;3.22;0.70;;;4.40;85.70;;;;;;4933847;29;20051;-87
2021/11/28 02:17:13;;;;;;;2.42;0.75;;;4.40;85.70;;;;;;4933836;29;20063;-87
2021/11/28 02:19:40;;;;;;;1.80;0.85;;;4.40;85.70;;;;;;4933614;29;20048;-87
2021/11/28 02:22:07;;;;;;;5.65;0.90;;;4.40;85.70;;;;;;4935855;29;20056;-87
2021/11/28 02:24:34;;;;;;;4.15;0.93;;;4.40;85.70;;;;;;4932475;29;20075;-88
2021/11/28 02:27:01;;;;;;;5.13;0.95;;;4.40;85.80;;;;;;4933858;29;20516;-87
2021/11/28 02:29:28;;;;;;;8.68;1.52;;;4.40;85.80;;;;;;4933642;29;20062;-87
2021/11/28 02:31:55;;;;;;;6.70;1.10;;;4.40;85.80;;;;;;4933648;29;20044;-87
2021/11/28 02:34:22;;;;;;;7.88;1.55;;;4.40;85.80;;;;;;4933594;29;20123;-87
2021/11/28 02:36:53;;;;;;;6.13;1.20;;;4.40;85.90;;;;;;4933464;29;20048;-87
2021/11/28 02:39:20;;;;;;;4.32;1.02;;;4.40;85.90;;;;;;4933411;29;20056;-86
2021/11/28 02:41:48;;;;;;;6.75;1.50;;;4.40;85.90;;;;;;4933404;29;20059;-87
2021/11/28 02:44:16;;;;;;;3.90;1.27;;;4.40;85.90;;;;;;4933386;29;20059;-86
2021/11/28 02:46:44;;;;;;;4.15;1.13;;;4.50;86.00;;;;;;4933377;29;20058;-87
2021/11/28 02:49:12;;;;;;;7.88;1.10;;;4.40;86.00;;;;;;4934569;29;20051;-86
2021/11/28 02:51:39;;;;;;;9.10;1.30;;;4.50;86.00;;;;;;4932681;29;20056;-87
2021/11/28 02:54:07;;;;;;;6.57;1.15;;;4.50;86.00;;;;;;4933178;29;20052;-87
2021/11/28 02:56:34;;;;;;;7.35;1.20;;;4.50;86.00;;;;;;4932890;29;20047;-87
2021/11/28 02:59:03;;;;;;;5.43;1.20;;;4.50;86.10;;;;;;4933139;29;20055;-87
2021/11/28 03:01:30;;;;;;;7.68;1.30;;;4.50;86.10;;;;;;4933002;29;20056;-86
2021/11/28 03:03:57;;;;;;;6.72;1.27;;;4.50;86.10;;;;;;4933510;29;20059;-87
2021/11/28 03:06:24;;;;;;;5.38;1.10;;;4.50;86.10;;;;;;4932983;29;20048;-86
2021/11/28 03:08:51;;;;;;;4.97;1.08;;;4.50;86.10;;;;;;4930117;29;20063;-86
2021/11/28 03:11:18;;;;;;;5.13;1.20;;;4.50;86.10;;;;;;4931531;29;20055;-86
2021/11/28 03:13:48;;;;;;;5.35;1.17;;;4.50;86.10;;;;;;4932742;29;20055;-86
2021/11/28 03:16:19;;;;;;;3.42;0.93;;;4.50;86.10;;;;;;4934299;29;20055;-87
2021/11/28 03:18:48;;;;;;;3.47;1.23;;;4.60;86.10;;;;;;4933901;29;20521;-87
2021/11/28 03:21:21;;;;;;;4.78;1.00;;;4.60;86.10;;;;;;4932619;29;20051;-87
2021/11/28 03:23:50;;;;;;;3.95;0.95;;;4.60;86.10;;;;;;4932550;29;20461;-87
2021/11/28 03:26:22;;;;;;;3.05;0.93;;;4.60;86.10;;;;;;4931308;29;20043;-86
2021/11/28 03:28:52;;;;;;;7.38;1.27;;;4.60;86.10;;;;;;4930097;29;20044;-87
2021/11/28 03:31:20;;;;;;;4.68;0.93;;;4.60;86.10;;;;;;4932859;29;20047;-86
2021/11/28 03:33:48;;;;;;;6.35;1.20;;;4.60;86.10;;;;;;4934314;29;20074;-87
2021/11/28 03:36:19;;;;;;;5.28;1.08;;;4.60;86.00;;;;;;4932406;29;20080;-88
2021/11/28 03:38:47;;;;;;;3.00;0.77;;;4.60;86.00;;;;;;4932243;29;20055;-88
2021/11/28 03:41:16;;;;;;;4.28;1.10;;;4.60;86.00;;;;;;4932183;29;20051;-88
2021/11/28 03:43:44;;;;;;;1.73;0.65;;;4.60;86.00;;;;;;4932424;29;20056;-87
2021/11/28 03:46:11;;;;;;;4.68;0.88;;;4.50;85.90;;;;;;4932997;29;20426;-87
2021/11/28 03:48:38;;;;;;;2.10;0.73;;;4.50;85.90;;;;;;4931596;29;20127;-87
2021/11/28 03:51:06;;;;;;;3.35;0.80;;;4.50;85.90;;;;;;4932270;29;20075;-86
2021/11/28 03:53:33;;;;;;;5.20;1.10;;;4.50;85.80;;;;;;4932027;29;20044;-87
2021/11/28 03:56:04;;;;;;;2.00;0.73;;;4.50;85.80;;;;;;4932215;29;20063;-86
2021/11/28 03:58:32;;;;;;;1.63;0.70;;;4.50;85.80;;;;;;4931958;29;20079;-86
2021/11/28 04:01:00;;;;;;;2.05;0.60;;;4.50;85.80;;;;;;4933614;29;20055;-86
2021/11/28 04:03:27;;;;;;;3.80;0.82;;;4.50;85.70;;;;;;4931906;29;20063;-86
2021/11/28 04:05:54;;;;;;;3.08;0.85;;;4.50;85.70;;;;;;4931951;29;20055;-87
2021/11/28 04:08:22;;;;;;;6.55;1.00;;;4.40;85.70;;;;;;4930619;29;20416;-86
2021/11/28 04:10:50;;;;;;;4.78;1.08;;;4.40;85.70;;;;;;4931928;29;20122;-87
2021/11/28 04:13:17;;;;;;;3.45;0.90;;;4.40;85.70;;;;;;4932877;29;20197;-86
2021/11/28 04:15:44;;;;;;;2.22;0.90;;;4.40;85.70;;;;;;4932842;29;20059;-86
2021/11/28 04:18:11;;;;;;;3.35;0.82;;;4.40;85.70;;;;;;4931838;29;20079;-86
2021/11/28 04:20:39;;;;;;;3.22;0.90;;;4.40;85.70;;;;;;4931575;29;20043;-86
2021/11/28 04:23:06;;;;;;;2.28;0.90;;;4.40;85.70;;;;;;4929143;29;20048;-86
2021/11/28 04:25:34;;;;;;;2.65;0.60;;;4.40;85.70;;;;;;4931765;29;20048;-87
2021/11/28 04:28:01;;;;;;;2.70;0.88;;;4.30;85.70;;;;;;4933724;29;20409;-87
2021/11/28 04:30:28;;;;;;;1.52;0.70;;;4.30;85.70;;;;;;4931334;29;20058;-86
2021/11/28 04:32:56;;;;;;;2.08;0.80;;;4.30;85.70;;;;;;4931825;29;20064;-86
2021/11/28 04:35:23;;;;;;;2.58;0.90;;;4.30;85.70;;;;;;4931565;29;20076;-86
2021/11/28 04:37:50;;;;;;;2.75;0.90;;;4.30;85.70;;;;;;4931763;29;20048;-86
2021/11/28 04:40:17;;;;;;;4.05;1.05;;;4.30;85.70;;;;;;4932455;29;20402;-86
2021/11/28 04:42:44;;;;;;;2.83;0.90;;;4.30;85.70;;;;;;4932902;29;20394;-87
2021/11/28 04:45:12;;;;;;;4.05;1.00;;;4.30;85.70;;;;;;4931273;29;20056;-86
2021/11/28 04:47:40;;;;;;;1.52;0.80;;;4.30;85.80;;;;;;4930269;29;20044;-86
2021/11/28 04:50:12;;;;;;;5.10;1.20;;;4.20;85.80;;;;;;4931539;29;20327;-86
2021/11/28 04:52:39;;;;;;;3.65;1.00;;;4.30;85.80;;;;;;4915667;29;20051;-86
2021/11/28 04:55:08;;;;;;;3.90;1.05;;;4.30;85.80;;;;;;4933683;29;20512;-86
2021/11/28 04:57:35;;;;;;;2.75;0.98;;;4.30;85.80;;;;;;4932177;29;20058;-86
2021/11/28 05:00:12;;;;;;;4.35;1.05;;;4.30;85.80;;;;;;4934789;29;20051;-86
2021/11/28 05:02:39;;;;;;;1.88;0.90;;;4.30;85.80;;;;;;4935169;29;20051;-86
2021/11/28 05:05:07;;;;;;;3.67;1.27;;;4.30;85.80;;;;;;4935352;29;20056;-89
2021/11/28 05:07:34;;;;;;;4.38;1.00;;;4.30;85.90;;;;;;4935238;29;20058;-87
2021/11/28 05:10:01;;;;;;;2.33;0.90;;;4.30;85.80;;;;;;4937057;29;20052;-87
2021/11/28 05:12:28;;;;;;;4.45;1.25;;;4.30;85.90;;;;;;4934970;29;20060;-86
2021/11/28 05:14:55;;;;;;;4.75;1.10;;;4.30;85.90;;;;;;4934712;29;20063;-86
2021/11/28 05:17:22;;;;;;;6.18;1.27;;;4.30;85.90;;;;;;4934925;29;20051;-86
2021/11/28 05:19:49;;;;;;;3.05;0.98;;;4.30;85.90;;;;;;4934929;29;20070;-87
2021/11/28 05:22:16;;;;;;;2.58;1.10;;;4.30;85.90;;;;;;4936015;29;20070;-86
2021/11/28 05:24:46;;;;;;;4.15;1.10;;;4.30;85.90;;;;;;4936011;29;20122;-86
2021/11/28 05:27:14;;;;;;;5.50;1.20;;;4.30;85.90;;;;;;4934682;29;20421;-86
2021/11/28 05:29:41;;;;;;;3.88;1.10;;;4.30;85.90;;;;;;4933181;29;20296;-86
2021/11/28 05:32:08;;;;;;;4.40;1.40;;;4.30;85.90;;;;;;4934826;29;20074;-87
2021/11/28 05:34:35;;;;;;;2.92;1.05;;;4.40;85.90;;;;;;4934751;29;20047;-87
2021/11/28 05:37:02;;;;;;;2.78;1.13;;;4.40;85.90;;;;;;4936678;29;20460;-88
2021/11/28 05:39:30;;;;;;;2.03;1.08;;;4.30;85.90;;;;;;4934396;29;20508;-87
2021/11/28 05:41:57;;;;;;;4.15;1.00;;;4.40;85.90;;;;;;4934088;29;20425;-86
2021/11/28 05:44:25;;;;;;;3.00;1.00;;;4.40;85.90;;;;;;4934533;29;20048;-87
2021/11/28 05:46:52;;;;;;;2.85;1.20;;;4.40;85.90;;;;;;4934493;29;20173;-87
2021/11/28 05:49:19;;;;;;;4.03;1.20;;;4.40;85.90;;;;;;4935531;29;20456;-88
2021/11/28 05:51:46;;;;;;;6.53;1.20;;;4.40;85.90;;;;;;4934731;29;20048;-86
2021/11/28 05:54:13;;;;;;;3.40;1.45;;;4.30;85.90;;;;;;4934303;29;20068;-87
2021/11/28 05:56:40;;;;;;;4.60;1.50;;;4.40;85.90;;;;;;4933723;29;20428;-86
2021/11/28 05:59:07;;;;;;;4.47;1.10;;;4.30;85.90;;;;;;4934428;29;20421;-87
2021/11/28 06:01:34;;;;;;;7.43;1.42;;;4.30;85.90;;;;;;4934268;29;20125;-87
2021/11/28 06:04:01;;;;;;;4.93;1.17;;;4.40;85.90;;;;;;4936200;29;20062;-86
2021/11/28 06:06:28;;;;;;;5.38;1.20;;;4.40;86.00;;;;;;4932708;29;20059;-86
2021/11/28 06:08:55;;;;;;;3.20;1.10;;;4.40;85.90;;;;;;4933437;29;20513;-87
2021/11/28 06:11:22;;;;;;;3.72;0.98;;;4.40;86.00;;;;;;4932384;29;20054;-86
2021/11/28 06:13:51;;;;;;;2.88;1.02;;;4.40;86.00;;;;;;4934154;29;20063;-86
2021/11/28 06:16:18;;;;;;;4.95;1.00;;;4.40;86.00;;;;;;4934859;29;20066;-86
2021/11/28 06:18:45;;;;;;;2.47;0.80;;;4.40;85.90;;;;;;4935248;29;20528;-86
2021/11/28 06:21:12;;;;;;;2.05;0.80;;;4.40;85.90;;;;;;4933614;29;20047;-87
2021/11/28 06:23:39;;;;;;;1.58;0.75;;;4.40;86.00;;;;;;4933756;29;20509;-87
2021/11/28 06:26:06;;;;;;;3.35;1.02;;;4.40;85.90;;;;;;4933553;29;20048;-86
2021/11/28 06:28:34;;;;;;;3.88;1.00;;;4.40;85.90;;;;;;4933726;29;20103;-87
2021/11/28 06:31:01;;;;;;;3.22;0.90;;;4.40;85.90;;;;;;4935649;29;20052;-86
2021/11/28 06:33:29;;;;;;;6.65;1.23;;;4.40;85.90;;;;;;4933571;29;20135;-86
2021/11/28 06:35:57;;;;;;;3.85;0.85;;;4.40;85.80;;;;;;4933478;29;20051;-87
2021/11/28 06:38:24;;;;;;;5.25;1.00;;;4.30;85.80;;;;;;4933489;29;20044;-86
2021/11/28 06:40:51;;;;;;;1.20;0.68;;;4.40;85.80;;;;;;4933183;29;20050;-87
2021/11/28 06:43:18;;;;;;;4.38;0.82;;;4.30;85.70;;;;;;4934383;29;20044;-86
2021/11/28 06:45:45;;;;;;;3.42;0.70;;;4.30;85.70;;;;;;4933204;29;20054;-87
2021/11/28 06:48:12;;;;;;;4.95;0.70;;;4.30;85.70;;;;;;4933320;29;20078;-86
2021/11/28 06:50:39;;;;;;;2.70;0.80;;;4.30;85.70;;;;;;4933196;29;20107;-86
2021/11/28 06:53:06;;;;;;;3.80;0.80;;;4.30;85.70;;;;;;4933254;29;20421;-86
2021/11/28 06:55:33;;;;;;;3.35;0.95;;;4.20;85.60;;;;;;4933006;29;20052;-86
2021/11/28 06:58:00;;;;;;;4.05;0.60;;;4.30;85.60;;;;;;4934992;29;20083;-88
2021/11/28 07:00:28;;;;;;;2.35;0.70;;;4.20;85.60;;;;;;4933044;29;20051;-86
2021/11/28 07:02:55;;;;;;;3.50;0.90;;;4.20;85.60;;;;;;4933068;29;20099;-88
2021/11/28 07:05:22;;;;;;;2.67;0.93;;;4.20;85.60;;;;;;4933032;29;20051;-88
2021/11/28 07:07:49;;;;;;;2.25;0.75;;;4.20;85.60;;;;;;4932969;29;20047;-86
2021/11/28 07:10:16;;;;;;;2.63;0.80;;;4.20;85.60;;;;;;4933716;29;20048;-86
2021/11/28 07:12:44;;;;;;;1.42;0.63;;;4.20;85.60;;;;;;4934127;29;20051;-86
2021/11/28 07:15:12;;;;;;;2.05;0.90;;;4.10;85.60;;;;;;4931456;29;20528;-86
2021/11/28 07:17:39;;;;;;;1.48;0.70;;;4.10;85.60;;;;;;4932859;29;20052;-86
2021/11/28 07:20:07;;;;;;;1.98;0.73;;;4.10;85.70;;;;;;4931089;29;20047;-86
2021/11/28 07:22:34;;;;;;;4.20;0.90;;;4.10;85.70;;;;;;4931935;29;20453;-87
2021/11/28 07:25:01;;;;;;;2.53;0.85;;;4.10;85.70;;;;;;4933914;29;20055;-86
2021/11/28 07:27:28;;;;;;;2.78;0.77;;;4.10;85.70;;;;;;4932451;29;20477;-87
2021/11/28 07:29:57;;;;;;;3.13;1.15;;;4.20;85.70;;;;;;4932477;29;20055;-86
2021/11/28 07:32:24;;;;;;;3.13;0.90;;;4.20;85.80;;;;;;4932713;29;20056;-86
2021/11/28 07:34:51;;;;;;;4.00;1.23;;;4.20;85.80;;;;;;4932529;29;20513;-86
2021/11/28 07:37:18;;;;;;;3.40;1.10;;;4.20;85.80;;;;;;4933411;29;20512;-87
2021/11/28 07:39:45;;;;;;;2.13;0.85;;;4.20;85.80;;;;;;4933374;29;20066;-87
2021/11/28 07:42:12;;;;;;;4.63;1.00;;;4.20;85.90;;;;;;4932292;29;20082;-86
2021/11/28 07:44:39;;;;;;;5.03;1.08;;;4.20;85.90;;;;;;4932402;29;20043;-86
2021/11/28 07:47:06;;;;;;;3.75;1.10;;;4.20;85.90;;;;;;4932441;29;20054;-86
2021/11/28 07:49:33;;;;;;;5.70;1.10;;;4.20;85.90;;;;;;4932304;29;20485;-86
2021/11/28 07:52:00;;;;;;;2.63;1.10;;;4.20;85.90;;;;;;4934121;29;20070;-86
2021/11/28 07:54:27;;;;;;;3.75;1.00;;;4.20;85.90;;;;;;4931797;29;20051;-86
2021/11/28 07:56:54;;;;;;;3.03;0.90;;;4.20;85.90;;;;;;4931936;29;20067;-86
2021/11/28 07:59:21;;;;;;;5.68;0.85;;;4.20;85.90;;;;;;4930886;29;20044;-86
2021/11/28 08:01:48;;;;;;;3.40;0.88;;;4.30;85.90;;;;;;4928477;29;20531;-86
2021/11/28 08:04:15;;;;;;;2.03;0.80;;;4.30;85.90;;;;;;4947491;29;20047;-86
2021/11/28 08:06:43;;;;;;;2.25;0.88;;;4.30;85.90;;;;;;4933751;29;20513;-86
2021/11/28 08:09:10;;;;;;;1.75;0.82;;;4.30;85.90;;;;;;4933073;29;20055;-86
2021/11/28 08:11:37;;;;;;;0.88;0.50;;;4.30;85.80;;;;;;4932852;29;20051;-87
2021/11/28 08:14:04;;;;;;;2.55;0.70;;;4.30;85.80;;;;;;4932640;29;20531;-87
2021/11/28 08:16:31;;;;;;;2.72;0.60;;;4.30;85.70;;;;;;4933003;29;20473;-86
2021/11/28 08:18:58;;;;;;;2.97;0.82;;;4.30;85.70;;;;;;4935147;29;20062;-86
2021/11/28 08:21:28;;;;;;;1.70;0.60;;;4.20;85.60;;;;;;4931110;29;20071;-86
2021/11/28 08:23:57;;;;;;;1.33;0.60;;;4.20;85.50;;;;;;4932827;29;20055;-86
2021/11/28 08:26:26;;;;;;;1.80;0.70;;;4.10;85.40;;;;;;4930045;29;20473;-86
2021/11/28 08:28:54;;;;;;;1.92;0.80;;;4.10;85.30;;;;;;4932445;29;20059;-86
2021/11/28 08:31:22;;;;;;;3.40;0.70;;;4.10;85.30;;;;;;4931920;29;20063;-87
2021/11/28 08:33:49;;;;;;;2.63;0.80;;;4.00;85.20;;;;;;4932635;29;20058;-88
2021/11/28 08:36:20;;;;;;;1.13;0.50;;;4.00;85.10;;;;;;4930981;29;20058;-88
2021/11/28 08:38:48;;;;;;;1.10;0.50;;;3.90;85.10;;;;;;4932814;29;20406;-88
2021/11/28 08:41:19;;;;;;;1.90;0.70;;;3.90;85.00;;;;;;4931352;29;20055;-88
2021/11/28 08:43:46;;;;;;;2.95;0.70;;;3.90;84.90;;;;;;4932280;29;20398;-87
2021/11/28 08:46:13;;;;;;;2.05;0.70;;;3.90;84.90;;;;;;4932915;29;20055;-87
2021/11/28 08:48:40;;;;;;;2.22;0.65;;;3.80;84.80;;;;;;4933507;29;20058;-87
2021/11/28 08:51:08;;;;;;;0.82;0.50;;;3.70;84.80;;;;;;4932073;29;20059;-87
2021/11/28 08:53:36;;;;;;;1.33;0.60;;;3.70;84.80;;;;;;4931316;29;20406;-87
2021/11/28 08:56:05;;;;;;;1.92;0.60;;;3.70;84.80;;;;;;4929664;29;20461;-86
2021/11/28 08:58:34;;;;;;;1.38;0.68;;;3.60;84.70;;;;;;4932351;29;20054;-87
2021/11/28 09:01:01;;;;;;;2.75;0.77;;;3.50;84.70;;;;;;4933181;29;20063;-89
2021/11/28 09:03:28;;;;;;;3.03;0.80;;;3.50;84.70;;;;;;4931474;29;20047;-88
2021/11/28 09:05:55;;;;;;;3.75;0.98;;;3.50;84.70;;;;;;4930960;29;20051;-86
2021/11/28 09:08:23;;;;;;;1.67;0.73;;;3.40;84.70;;;;;;4931499;29;20528;-86
2021/11/28 09:10:50;;;;;;;2.03;0.90;;;3.40;84.70;;;;;;4932462;29;20052;-86
2021/11/28 09:13:17;;;;;;;1.70;0.70;;;3.40;84.70;;;;;;4933312;29;20055;-86
2021/11/28 09:15:45;;;;;;;2.00;0.80;;;3.40;84.70;;;;;;4933722;29;20056;-86
2021/11/28 09:18:53;;;;;;;1.52;0.70;;;3.30;84.70;;;;;;4932388;29;20048;-87
2021/11/28 09:21:21;;;;;;;1.50;0.80;;;3.30;84.70;;;;;;4929220;29;20539;-89
2021/11/28 09:26:34;;;;;;;2.28;0.93;;;3.20;84.70;;;;;;4932516;29;20066;-88
2021/11/28 09:29:02;;;;;;;1.70;0.73;;;3.20;84.60;;;;;;4932313;29;20059;-88
2021/11/28 09:31:30;;;;;;;2.00;0.77;;;3.20;84.70;;;;;;4932414;29;20067;-88
2021/11/28 09:33:59;;;;;;;1.77;0.80;;;3.10;84.70;;;;;;4934004;29;20055;-87
2021/11/28 09:36:28;;;;;;;1.33;0.75;;;3.10;84.70;;;;;;4932097;29;20051;-87
2021/11/28 09:38:56;;;;;;;2.08;0.70;;;3.10;84.70;;;;;;4931053;29;20414;-87
2021/11/28 09:41:25;;;;;;;2.78;0.70;;;3.00;84.70;;;;;;4932054;29;20500;-87
2021/11/28 09:43:57;;;;;;;2.08;0.90;;;3.00;84.70;;;;;;4929955;29;20048;-87
2021/11/28 09:46:25;;;;;;;5.53;1.00;;;3.00;84.70;;;;;;4935721;29;20055;-86
2021/11/28 09:48:58;;;;;;;3.13;1.00;;;3.00;84.70;;;;;;4937080;29;20417;-86
2021/11/28 09:51:28;;;;;;;5.03;1.23;;;3.00;84.70;;;;;;4935233;29;20059;-85
2021/11/28 09:54:01;;;;;;;3.08;1.20;;;3.00;84.70;;;;;;4934617;29;20052;-85
2021/11/28 09:56:33;;;;;;;3.25;1.13;;;3.00;84.70;;;;;;4931681;29;20044;-85
2021/11/28 09:59:03;;;;;;;4.07;1.27;;;3.00;84.80;;;;;;4932583;29;20052;-85
2021/11/28 10:01:32;;;;;;;2.20;0.90;;;3.00;84.80;;;;;;4935862;29;20115;-86
2021/11/28 10:04:00;;;;;;;7.53;1.50;;;3.00;84.80;;;;;;4937151;29;20047;-86
2021/11/28 10:06:28;;;;;;;5.20;1.35;;;3.00;84.80;;;;;;4935148;29;20095;-86
2021/11/28 10:08:56;;;;;;;8.63;1.48;;;3.00;84.90;;;;;;4935236;29;20115;-85
2021/11/28 10:11:57;;;;;;;2.88;1.00;;;3.00;84.90;;;;;;4935147;29;20520;-85
2021/11/28 10:14:24;;;;;;;4.35;1.30;;;3.00;84.90;;;;;;4933809;29;20051;-85
2021/11/28 10:16:51;;;;;;;4.97;1.00;;;3.00;85.00;;;;;;4934162;29;20048;-86
2021/11/28 10:19:20;;;;;;;6.05;1.27;;;3.00;85.00;;;;;;4941880;29;20055;-86
2021/11/28 10:21:47;;;;;;;5.97;1.08;;;3.00;85.10;;;;;;4936234;29;20055;-85
2021/11/28 10:24:16;;;;;;;7.72;1.52;;;3.00;85.10;;;;;;4934780;29;20047;-85
2021/11/28 10:27:01;;;;;;;6.40;1.08;;;3.00;85.10;;;;;;4933798;29;20531;-86
2021/11/28 10:29:30;;;;;;;4.82;0.93;;;3.10;85.20;;;;;;4934562;29;20051;-87
2021/11/28 10:32:00;;;;;;;6.15;1.00;;;3.10;85.20;;;;;;4934709;29;20051;-86
2021/11/28 10:34:37;;;;;;;3.63;1.45;;;3.10;85.20;;;;;;4934885;29;20056;-86
2021/11/28 10:37:11;;;;;;;2.80;1.10;;;3.20;85.30;;;;;;4936495;29;20043;-85
2021/11/28 10:39:42;;;;;;;3.38;0.80;;;3.10;85.30;;;;;;4933996;29;20078;-86
2021/11/28 10:42:18;;;;;;;4.15;0.90;;;3.20;85.20;;;;;;4934530;29;20055;-85
2021/11/28 10:45:21;;;;;;;2.88;0.80;;;3.20;85.20;;;;;;4934082;29;20051;-85
2021/11/28 10:47:47;;;;;;;3.95;0.93;;;3.20;85.20;;;;;;4932828;29;20043;-85
2021/11/28 10:50:36;;;;;;;4.20;1.08;;;3.20;85.20;;;;;;4934394;29;20111;-85
2021/11/28 10:53:14;;;;;;;3.40;0.80;;;3.20;85.20;;;;;;4922918;29;20082;-85
2021/11/28 10:55:47;;;;;;;2.35;0.88;;;3.20;85.20;;;;;;4919784;29;20064;-87
2021/11/28 10:58:25;;;;;;;2.55;0.90;;;3.20;85.20;;;;;;4935093;29;20066;-86
2021/11/28 11:00:52;;;;;;;2.42;0.80;;;3.20;85.10;;;;;;4933916;29;20051;-87
2021/11/28 11:03:31;;;;;;;5.90;1.05;;;3.20;85.10;;;;;;4933226;29;20055;-87
2021/11/28 11:06:19;;;;;;;3.30;1.25;;;3.20;85.10;;;;;;4933875;29;20052;-86
2021/11/28 11:08:47;;;;;;;2.20;0.55;;;3.20;85.00;;;;;;4933908;29;20052;-86
2021/11/28 11:11:16;;;;;;;2.22;0.70;;;3.20;85.00;;;;;;4931223;29;20473;-88
2021/11/28 11:13:55;;;;;;;2.85;0.70;;;3.20;85.00;;;;;;4933913;29;20044;-86
2021/11/28 11:16:35;;;;;;;3.88;1.17;;;3.10;85.00;;;;;;4934750;29;20058;-86
2021/11/28 11:19:28;;;;;;;2.92;0.98;;;3.20;85.00;;;;;;4935634;29;20047;-86
2021/11/28 11:22:11;;;;;;;4.35;0.85;;;3.10;85.10;;;;;;4934126;29;20052;-86
2021/11/28 11:24:41;;;;;;;2.20;0.70;;;3.20;85.10;;;;;;4934068;29;20501;-86
2021/11/28 11:27:15;;;;;;;5.10;1.10;;;3.10;85.10;;;;;;4933902;29;20521;-85
2021/11/28 11:29:48;;;;;;;3.00;1.00;;;3.10;85.20;;;;;;4933437;29;20039;-84
2021/11/28 11:32:17;;;;;;;7.35;1.10;;;3.20;85.30;;;;;;4932619;29;20055;-85
2021/11/28 11:34:49;;;;;;;1.42;0.70;;;3.20;85.40;;;;;;4932657;29;22700;-86
2021/11/28 11:37:18;;;;;;;4.10;1.30;;;3.30;85.40;;;;;;4934497;29;20048;-86
2021/11/28 11:39:48;;;;;;;4.95;1.10;;;3.30;85.50;;;;;;4934835;29;20063;-86
2021/11/28 11:42:18;;;;;;;4.60;1.08;;;3.30;85.50;;;;;;4933341;29;20055;-86
2021/11/28 11:44:46;;;;;;;6.38;1.30;;;3.40;85.50;;;;;;4933160;29;20048;-86
2021/11/28 11:47:17;;;;;;;4.30;1.00;;;3.40;85.60;;;;;;4933523;29;20138;-85
2021/11/28 11:49:46;;;;;;;2.63;0.90;;;3.50;85.60;;;;;;4933274;29;20055;-85
2021/11/28 11:52:14;;;;;;;2.63;1.00;;;3.50;85.60;;;;;;4933586;29;20051;-86
2021/11/28 11:54:43;;;;;;;1.95;0.73;;;3.50;85.50;;;;;;4934121;29;20556;-86
2021/11/28 11:57:37;;;;;;;7.15;0.98;;;3.50;85.50;;;;;;4931492;29;20063;-86
2021/11/28 12:00:16;;;;;;;2.28;0.70;;;3.50;85.40;;;;;;4932898;29;20056;-86
2021/11/28 12:02:53;;;;;;;3.30;0.80;;;3.50;85.30;;;;;;4933181;29;20051;-86
2021/11/28 12:05:29;;;;;;;2.42;1.00;;;3.50;85.30;;;;;;4932702;29;20046;-86
2021/11/28 12:08:08;;;;;;;2.05;0.80;;;3.50;85.20;;;;;;4931631;29;20047;-86
2021/11/28 12:10:45;;;;;;;3.83;1.00;;;3.50;85.20;;;;;;4931915;29;20051;-88
2021/11/28 12:13:24;;;;;;;2.20;0.80;;;3.50;85.10;;;;;;4929823;29;20051;-87
2021/11/28 12:16:03;;;;;;;1.58;0.70;;;3.50;85.00;;;;;;4932146;29;20079;-86
2021/11/28 12:18:34;;;;;;;2.30;0.85;;;3.40;84.90;;;;;;4932831;29;20048;-85
2021/11/28 12:21:03;;;;;;;2.33;1.00;;;3.40;84.80;;;;;;4932539;29;20537;-86
2021/11/28 12:23:43;;;;;;;2.65;0.90;;;3.40;84.80;;;;;;4931862;29;20086;-86
2021/11/28 12:26:49;;;;;;;1.92;0.80;;;3.40;84.70;;;;;;4931775;29;20059;-87
2021/11/28 12:29:19;;;;;;;1.77;0.80;;;3.30;84.60;;;;;;4896532;29;20044;-88
2021/11/28 12:31:47;;;;;;;1.55;0.80;;;3.30;84.60;;;;;;4882928;28;20088;-87
2021/11/28 12:34:18;;;;;;;1.58;0.70;;;3.20;84.50;;;;;;4909978;29;20052;-86
2021/11/28 12:36:55;;;;;;;1.50;0.70;;;3.20;84.50;;;;;;4898901;29;20522;-89
2021/11/28 12:39:23;;;;;;;1.25;0.70;;;3.20;84.40;;;;;;4894436;29;20064;-89
2021/11/28 12:42:09;;;;;;;2.05;0.75;;;3.10;84.40;;;;;;4910065;29;20056;-88
2021/11/28 12:44:54;;;;;;;1.55;0.70;;;3.10;84.40;;;;;;4904397;29;20060;-89
2021/11/28 12:47:23;;;;;;;2.88;1.42;;;3.00;84.40;;;;;;4896890;29;20048;-88
2021/11/28 12:49:56;;;;;;;4.25;0.80;;;3.00;84.30;;;;;;4896553;29;20052;-88
2021/11/28 12:52:33;;;;;;;2.60;0.80;;;2.90;84.30;;;;;;4907851;29;20066;-87
2021/11/28 12:55:03;;;;;;;1.60;0.77;;;2.90;84.30;;;;;;4913003;29;20060;-86
2021/11/28 12:57:34;;;;;;;1.42;0.60;;;2.90;84.30;;;;;;4896368;29;20108;-87
2021/11/28 13:00:30;;;;;;;2.63;0.80;;;2.90;84.40;;;;;;4896756;29;20067;-85
2021/11/28 13:03:08;;;;;;;2.15;0.73;;;2.90;84.40;;;;;;4896788;29;20633;-86
2021/11/28 13:05:46;;;;;;;1.40;0.70;;;2.90;84.40;;;;;;4915991;29;20062;-85
2021/11/28 13:08:13;;;;;;;1.52;0.73;;;2.90;84.40;;;;;;4932654;29;20058;-86
2021/11/28 13:10:47;;;;;;;1.92;0.70;;;2.80;84.40;;;;;;4917754;29;20580;-86
2021/11/28 13:13:18;;;;;;;;;;;2.80;84.40;;;;;;4930482;29;20052;-86
2021/11/28 13:15:54;;;;;;;1.70;0.88;;;2.80;84.40;;;;;;4933911;29;19930;-86